Time;durP1;ratioP1;P1;durP2;ratioP2;P2;SDS_P1;SDS_P2;PMS_P1;PMS_P2;Temp;Humidity;BMP_temperature;BMP_pressure;BME280_temperature;BME280_humidity;BME280_pressure;Samples;Min_cycle;Max_cycle;Signal;HPM_P1;HPM_P2
2023/12/01 00:02:15;;;;;;;16.08;9.75;;;1.80;99.90;;;;;;5078624;27;20075;-31
2023/12/01 00:04:41;;;;;;;16.60;10.00;;;1.70;99.90;;;;;;5071894;28;20056;-29
2023/12/01 00:07:06;;;;;;;13.90;9.45;;;1.80;99.90;;;;;;5073273;28;20020;-31
2023/12/01 00:09:33;;;;;;;13.63;9.68;;;1.80;99.90;;;;;;5068654;28;20024;-34
2023/12/01 00:11:58;;;;;;;14.13;9.68;;;1.80;99.90;;;;;;5074440;28;20050;-35
2023/12/01 00:14:24;;;;;;;15.80;9.10;;;1.80;99.90;;;;;;5070437;28;20029;-30
2023/12/01 00:16:50;;;;;;;15.57;9.52;;;1.80;99.90;;;;;;5069864;28;20045;-31
2023/12/01 00:19:15;;;;;;;13.90;9.02;;;1.80;99.90;;;;;;5070912;28;20071;-32
2023/12/01 00:21:41;;;;;;;16.17;10.25;;;1.80;99.90;;;;;;5073650;28;20059;-31
2023/12/01 00:24:06;;;;;;;14.55;9.18;;;1.80;99.90;;;;;;5070374;28;20060;-31
2023/12/01 00:26:32;;;;;;;13.57;9.65;;;1.80;99.90;;;;;;5073935;28;20025;-32
2023/12/01 00:28:58;;;;;;;17.27;9.57;;;1.80;99.90;;;;;;5078460;28;20112;-34
2023/12/01 00:31:24;;;;;;;13.40;8.45;;;1.70;99.90;;;;;;5068415;28;20104;-34
2023/12/01 00:33:51;;;;;;;14.60;10.27;;;1.70;99.90;;;;;;5071974;28;20632;-31
2023/12/01 00:36:16;;;;;;;14.27;9.07;;;1.70;99.90;;;;;;5068600;28;20036;-34
2023/12/01 00:38:42;;;;;;;11.43;8.05;;;1.70;99.90;;;;;;5072025;28;20358;-32
2023/12/01 00:41:07;;;;;;;12.25;9.32;;;1.70;99.90;;;;;;5068579;28;20486;-31
2023/12/01 00:43:33;;;;;;;12.68;7.93;;;1.80;99.90;;;;;;5072856;28;20119;-34
2023/12/01 00:45:58;;;;;;;11.63;8.13;;;1.70;99.90;;;;;;5051842;28;20032;-34
2023/12/01 00:48:24;;;;;;;13.65;8.77;;;1.70;99.90;;;;;;5071745;28;20029;-32
2023/12/01 00:50:52;;;;;;;9.40;7.75;;;1.70;99.90;;;;;;5072724;28;20462;-31
2023/12/01 00:53:17;;;;;;;12.83;8.30;;;1.70;99.90;;;;;;5076125;28;20761;-30
2023/12/01 00:55:43;;;;;;;11.10;7.88;;;1.70;99.90;;;;;;5071007;28;20107;-31
2023/12/01 00:58:09;;;;;;;9.25;7.32;;;1.70;99.90;;;;;;5078951;28;20020;-35
2023/12/01 01:00:34;;;;;;;11.05;7.25;;;1.70;99.90;;;;;;5069162;28;20505;-32
2023/12/01 01:03:00;;;;;;;13.20;8.70;;;1.60;99.90;;;;;;5076700;27;20031;-33
2023/12/01 01:05:25;;;;;;;12.75;8.40;;;1.60;99.90;;;;;;5070898;28;20040;-33
2023/12/01 01:07:51;;;;;;;12.18;9.02;;;1.60;99.90;;;;;;5075282;28;20039;-41
2023/12/01 01:10:17;;;;;;;12.52;7.45;;;1.50;99.90;;;;;;5071517;28;20113;-37
2023/12/01 01:12:42;;;;;;;10.93;8.23;;;1.40;99.90;;;;;;5075279;28;20052;-40
2023/12/01 01:15:08;;;;;;;10.40;7.15;;;1.40;99.90;;;;;;5075883;28;20454;-42
2023/12/01 01:17:34;;;;;;;15.80;7.18;;;1.40;99.90;;;;;;5078047;28;20028;-34
2023/12/01 01:20:00;;;;;;;10.75;6.82;;;1.50;99.90;;;;;;5071868;28;20051;-33
2023/12/01 01:22:26;;;;;;;8.25;6.47;;;1.50;99.90;;;;;;5071471;28;20086;-30
2023/12/01 01:24:52;;;;;;;11.18;7.18;;;1.50;99.90;;;;;;5078156;28;20028;-31
2023/12/01 01:27:19;;;;;;;12.98;6.85;;;1.50;99.90;;;;;;5075969;28;20021;-30
2023/12/01 01:29:45;;;;;;;9.85;7.55;;;1.40;99.90;;;;;;5071445;28;20512;-31
2023/12/01 01:32:11;;;;;;;12.10;7.57;;;1.40;99.90;;;;;;5073473;27;20028;-30
2023/12/01 01:34:38;;;;;;;12.85;7.97;;;1.40;99.90;;;;;;5073541;28;20028;-31
2023/12/01 01:37:04;;;;;;;7.65;6.45;;;1.40;99.90;;;;;;5072055;28;20077;-29
2023/12/01 01:39:29;;;;;;;11.85;6.85;;;1.40;99.90;;;;;;5073655;28;20040;-31
2023/12/01 01:41:56;;;;;;;10.32;7.20;;;1.40;99.90;;;;;;5077306;28;20459;-30
2023/12/01 01:44:22;;;;;;;10.95;7.25;;;1.40;99.90;;;;;;5073396;28;20031;-30
2023/12/01 01:46:50;;;;;;;10.60;6.90;;;1.40;99.90;;;;;;5076570;28;20363;-30
2023/12/01 01:49:16;;;;;;;10.68;6.50;;;1.40;99.90;;;;;;5076677;28;20728;-31
2023/12/01 01:51:42;;;;;;;8.60;6.65;;;1.50;99.90;;;;;;5072681;28;20059;-31
2023/12/01 01:54:09;;;;;;;12.52;7.45;;;1.60;99.90;;;;;;5085181;28;20798;-30
2023/12/01 01:56:35;;;;;;;14.98;8.55;;;1.60;99.90;;;;;;5075116;28;20055;-30
2023/12/01 01:59:01;;;;;;;12.38;7.38;;;1.60;99.90;;;;;;5074467;28;20028;-33
2023/12/01 02:01:26;;;;;;;12.05;7.60;;;1.60;99.90;;;;;;5071513;28;20190;-29
2023/12/01 02:03:53;;;;;;;10.05;7.07;;;1.70;99.90;;;;;;5073706;28;20032;-29
2023/12/01 02:06:19;;;;;;;8.18;6.80;;;1.70;99.90;;;;;;5070535;28;20028;-31
2023/12/01 02:08:45;;;;;;;10.70;6.50;;;1.70;99.90;;;;;;5076296;28;20028;-30
2023/12/01 02:11:14;;;;;;;10.75;6.60;;;1.70;99.90;;;;;;5076742;28;20429;-29
2023/12/01 02:13:40;;;;;;;11.85;7.45;;;1.70;99.90;;;;;;5074340;28;20032;-30
2023/12/01 02:16:08;;;;;;;8.48;6.25;;;1.70;99.90;;;;;;5070730;28;20028;-30
2023/12/01 02:18:34;;;;;;;9.17;6.33;;;1.70;99.90;;;;;;5071316;28;20040;-33
2023/12/01 02:21:00;;;;;;;8.95;6.55;;;1.70;99.90;;;;;;5077134;28;20277;-33
2023/12/01 02:23:29;;;;;;;9.30;6.85;;;1.70;99.90;;;;;;5071685;28;20063;-30
2023/12/01 02:25:54;;;;;;;11.02;7.20;;;1.70;99.90;;;;;;5078179;28;20123;-31
2023/12/01 02:28:20;;;;;;;8.43;5.97;;;1.70;99.90;;;;;;5074155;28;20123;-37
2023/12/01 02:30:52;;;;;;;7.22;5.80;;;1.70;99.90;;;;;;5070277;27;20036;-38
2023/12/01 02:33:19;;;;;;;7.60;5.95;;;1.70;99.90;;;;;;5078228;28;20035;-36
2023/12/01 02:35:46;;;;;;;7.45;5.78;;;1.70;99.90;;;;;;5074560;28;20050;-37
2023/12/01 02:38:11;;;;;;;8.25;5.93;;;1.70;99.90;;;;;;5072330;28;20020;-38
2023/12/01 02:40:42;;;;;;;8.80;6.15;;;1.70;99.90;;;;;;5072968;28;20027;-36
2023/12/01 02:43:10;;;;;;;8.45;6.07;;;1.70;99.90;;;;;;5073855;28;20024;-38
2023/12/01 02:45:36;;;;;;;7.95;5.85;;;1.70;99.90;;;;;;5068902;28;20374;-42
2023/12/01 02:48:01;;;;;;;9.82;6.43;;;1.70;99.90;;;;;;5075009;28;20054;-40
2023/12/01 02:50:27;;;;;;;9.60;5.65;;;1.70;99.90;;;;;;5072772;28;20024;-41
2023/12/01 02:52:53;;;;;;;9.65;6.07;;;1.70;99.90;;;;;;5069931;28;20482;-40
2023/12/01 02:55:18;;;;;;;7.50;5.55;;;1.70;99.90;;;;;;5069291;28;20485;-37
2023/12/01 02:57:44;;;;;;;7.32;5.20;;;1.70;99.90;;;;;;5068502;28;20389;-42
2023/12/01 03:00:14;;;;;;;8.13;5.65;;;1.70;99.90;;;;;;5074294;28;20028;-40
2023/12/01 03:02:40;;;;;;;8.18;6.22;;;1.70;99.90;;;;;;5074976;28;20565;-39
2023/12/01 03:05:07;;;;;;;10.18;6.55;;;1.70;99.90;;;;;;5075812;28;20428;-41
2023/12/01 03:07:33;;;;;;;10.82;6.63;;;1.60;99.90;;;;;;5071589;28;20027;-41
2023/12/01 03:09:58;;;;;;;9.20;6.68;;;1.60;99.90;;;;;;5074774;28;20021;-37
2023/12/01 03:12:24;;;;;;;10.30;6.53;;;1.60;99.90;;;;;;5075711;28;20040;-40
2023/12/01 03:14:50;;;;;;;7.63;6.53;;;1.60;99.90;;;;;;5077192;28;20423;-40
2023/12/01 03:17:15;;;;;;;8.48;6.28;;;1.70;99.90;;;;;;5074840;28;20028;-39
2023/12/01 03:19:41;;;;;;;10.35;7.20;;;1.70;99.90;;;;;;5068375;28;20077;-35
2023/12/01 03:22:06;;;;;;;10.35;6.28;;;1.70;99.90;;;;;;5072144;28;20243;-37
2023/12/01 03:24:32;;;;;;;10.85;6.63;;;1.70;99.90;;;;;;5080018;28;20027;-40
2023/12/01 03:26:58;;;;;;;9.90;6.38;;;1.70;99.90;;;;;;5070171;28;20892;-33
2023/12/01 03:29:24;;;;;;;8.10;6.20;;;1.60;99.90;;;;;;5072207;28;20021;-41
2023/12/01 03:31:50;;;;;;;8.75;6.38;;;1.60;99.90;;;;;;5077508;27;20024;-40
2023/12/01 03:34:15;;;;;;;8.57;5.53;;;1.70;99.90;;;;;;5072593;28;20140;-41
2023/12/01 03:36:41;;;;;;;10.52;6.85;;;1.70;99.90;;;;;;5073493;28;20028;-39
2023/12/01 03:39:07;;;;;;;10.77;6.00;;;1.70;99.90;;;;;;5076900;28;20449;-39
2023/12/01 03:41:32;;;;;;;10.05;6.15;;;1.70;99.90;;;;;;5072597;28;20040;-37
2023/12/01 03:43:58;;;;;;;8.77;5.63;;;1.60;99.90;;;;;;5069908;28;20575;-35
2023/12/01 03:46:24;;;;;;;11.02;6.50;;;1.60;99.90;;;;;;5070133;28;20111;-39
2023/12/01 03:48:50;;;;;;;9.70;5.70;;;1.60;99.90;;;;;;5070601;28;20031;-38
2023/12/01 03:51:15;;;;;;;8.70;6.35;;;1.70;99.90;;;;;;5073227;28;20092;-39
2023/12/01 03:53:41;;;;;;;10.50;5.88;;;1.70;99.90;;;;;;5083899;28;20123;-39
2023/12/01 03:56:07;;;;;;;10.40;6.07;;;1.70;99.90;;;;;;5072926;28;20567;-39
2023/12/01 03:58:33;;;;;;;6.88;5.20;;;1.70;99.90;;;;;;5069464;28;20082;-39
2023/12/01 04:00:59;;;;;;;6.57;5.57;;;1.70;99.90;;;;;;5066232;28;20040;-37
2023/12/01 04:03:28;;;;;;;12.02;6.50;;;1.70;99.90;;;;;;5108076;28;20640;-38
2023/12/01 04:05:55;;;;;;;9.52;5.75;;;1.70;99.90;;;;;;5076738;28;20051;-36
2023/12/01 04:08:21;;;;;;;8.57;6.03;;;1.70;99.90;;;;;;5068214;28;20032;-38
2023/12/01 04:10:47;;;;;;;9.98;6.63;;;1.70;99.90;;;;;;5066867;28;20070;-37
2023/12/01 04:13:15;;;;;;;10.00;6.20;;;1.70;99.90;;;;;;5068762;28;20032;-38
2023/12/01 04:15:42;;;;;;;9.98;6.10;;;1.70;99.90;;;;;;5074284;28;20024;-40
2023/12/01 04:18:08;;;;;;;10.70;6.05;;;1.70;99.90;;;;;;5070159;28;20108;-39
2023/12/01 04:20:38;;;;;;;9.65;6.90;;;1.70;99.90;;;;;;5068218;28;20545;-39
2023/12/01 04:23:14;;;;;;;9.25;6.55;;;1.70;99.90;;;;;;5071613;28;20696;-38
2023/12/01 04:25:46;;;;;;;9.15;6.60;;;1.70;99.90;;;;;;5073429;28;20025;-39
2023/12/01 04:28:15;;;;;;;7.88;6.03;;;1.70;99.90;;;;;;5072462;28;20020;-36
2023/12/01 04:30:42;;;;;;;10.77;7.05;;;1.70;99.90;;;;;;5073714;27;20439;-38
2023/12/01 04:33:08;;;;;;;9.60;6.57;;;1.70;99.90;;;;;;5073153;28;20024;-39
2023/12/01 04:35:35;;;;;;;10.75;6.20;;;1.70;99.90;;;;;;5076264;28;20032;-39
2023/12/01 04:38:03;;;;;;;9.85;6.65;;;1.70;99.90;;;;;;5066482;28;20032;-39
2023/12/01 04:40:30;;;;;;;8.82;6.50;;;1.70;99.90;;;;;;5073394;28;20440;-36
2023/12/01 04:42:58;;;;;;;12.52;6.70;;;1.70;99.90;;;;;;5075852;28;20032;-36
2023/12/01 04:45:29;;;;;;;8.68;6.40;;;1.70;99.90;;;;;;5070348;28;20029;-39
2023/12/01 04:47:55;;;;;;;11.65;6.65;;;1.70;99.90;;;;;;5073457;28;20480;-31
2023/12/01 04:50:27;;;;;;;10.57;6.50;;;1.70;99.90;;;;;;5074511;28;20123;-31
2023/12/01 04:52:54;;;;;;;12.27;6.93;;;1.70;99.90;;;;;;5077293;28;20031;-31
2023/12/01 04:55:22;;;;;;;10.27;7.00;;;1.70;99.90;;;;;;5076694;28;20036;-31
2023/12/01 04:57:48;;;;;;;9.80;6.22;;;1.70;99.90;;;;;;5077126;28;20029;-31
2023/12/01 05:00:22;;;;;;;11.32;7.50;;;1.70;99.90;;;;;;5075778;28;20035;-31
2023/12/01 05:02:52;;;;;;;10.88;6.88;;;1.70;99.90;;;;;;5075794;28;20040;-31
2023/12/01 05:05:23;;;;;;;11.95;7.57;;;1.70;99.90;;;;;;5072737;28;20460;-34
2023/12/01 05:07:51;;;;;;;11.63;6.10;;;1.70;99.90;;;;;;5072688;28;20420;-31
2023/12/01 05:10:17;;;;;;;8.73;6.43;;;1.60;99.90;;;;;;5078611;28;20024;-33
2023/12/01 05:12:49;;;;;;;9.88;6.72;;;1.60;99.90;;;;;;5074377;28;20659;-31
2023/12/01 05:15:16;;;;;;;10.57;6.55;;;1.60;99.90;;;;;;5072960;28;20520;-32
2023/12/01 05:17:51;;;;;;;14.02;7.18;;;1.60;99.90;;;;;;5076280;28;20025;-32
2023/12/01 05:20:18;;;;;;;11.70;8.00;;;1.60;99.90;;;;;;5072266;28;20054;-34
2023/12/01 05:22:45;;;;;;;11.00;7.38;;;1.70;99.90;;;;;;5072624;28;20052;-32
2023/12/01 05:25:14;;;;;;;10.70;6.97;;;1.70;99.90;;;;;;5078241;28;21070;-31
2023/12/01 05:27:44;;;;;;;;;;;1.70;99.90;;;;;;5074344;28;20021;-31
2023/12/01 05:30:12;;;;;;;8.32;6.28;;;1.70;99.90;;;;;;5078556;28;19912;-34
2023/12/01 05:32:39;;;;;;;10.45;7.50;;;1.60;99.90;;;;;;5070649;28;20028;-33
2023/12/01 05:35:05;;;;;;;9.60;7.20;;;1.60;99.90;;;;;;5072539;28;20047;-37
2023/12/01 05:37:31;;;;;;;10.55;7.38;;;1.60;99.90;;;;;;5070426;28;20056;-32
2023/12/01 05:39:56;;;;;;;12.93;8.05;;;1.70;99.90;;;;;;5070303;28;20422;-34
2023/12/01 05:42:22;;;;;;;10.55;7.03;;;1.70;99.90;;;;;;5074023;28;20039;-31
2023/12/01 05:44:47;;;;;;;12.48;7.22;;;1.60;99.90;;;;;;5071435;28;20040;-33
2023/12/01 05:47:13;;;;;;;11.52;7.55;;;1.60;99.90;;;;;;5073842;28;20086;-39
2023/12/01 05:49:38;;;;;;;11.23;7.15;;;1.60;99.90;;;;;;5075778;28;20024;-38
2023/12/01 05:52:04;;;;;;;14.38;8.30;;;1.60;99.90;;;;;;5074488;28;20036;-39
2023/12/01 05:54:30;;;;;;;11.75;8.15;;;1.70;99.90;;;;;;5075402;28;20060;-35
2023/12/01 05:56:55;;;;;;;11.55;7.43;;;1.60;99.90;;;;;;5069839;28;20032;-30
2023/12/01 05:59:21;;;;;;;10.18;6.88;;;1.60;99.90;;;;;;5073396;28;20040;-31
2023/12/01 06:01:47;;;;;;;12.55;7.00;;;1.60;99.90;;;;;;5071213;28;20712;-30
2023/12/01 06:04:13;;;;;;;11.85;7.28;;;1.60;99.90;;;;;;5073015;28;20618;-34
2023/12/01 06:06:39;;;;;;;10.10;6.47;;;1.60;99.90;;;;;;5076094;28;20029;-29
2023/12/01 06:09:07;;;;;;;10.27;7.35;;;1.60;99.90;;;;;;5074723;28;20086;-31
2023/12/01 06:11:33;;;;;;;13.90;8.20;;;1.70;99.90;;;;;;5072315;28;20073;-30
2023/12/01 06:14:00;;;;;;;8.32;6.78;;;1.60;99.90;;;;;;5072398;28;20028;-32
2023/12/01 06:16:25;;;;;;;11.77;7.10;;;1.60;99.90;;;;;;5072559;28;20032;-31
2023/12/01 06:18:51;;;;;;;9.05;6.57;;;1.60;99.90;;;;;;5071805;28;22395;-32
2023/12/01 06:21:17;;;;;;;10.90;7.30;;;1.60;99.90;;;;;;5072503;28;20068;-32
2023/12/01 06:23:43;;;;;;;10.25;6.95;;;1.70;99.90;;;;;;5071550;28;20032;-31
2023/12/01 06:26:09;;;;;;;7.50;6.22;;;1.70;99.90;;;;;;5072826;28;20020;-30
2023/12/01 06:28:34;;;;;;;11.80;8.55;;;1.70;99.90;;;;;;5070070;28;20024;-30
2023/12/01 06:31:00;;;;;;;9.57;6.68;;;1.70;99.90;;;;;;5074689;28;20032;-29
2023/12/01 06:33:26;;;;;;;10.57;7.18;;;1.70;99.90;;;;;;5074067;28;20444;-32
2023/12/01 06:35:52;;;;;;;10.35;7.22;;;1.60;99.90;;;;;;5073375;28;20028;-30
2023/12/01 06:38:17;;;;;;;10.25;7.20;;;1.60;99.90;;;;;;5071899;28;20111;-29
2023/12/01 06:40:43;;;;;;;9.48;7.03;;;1.60;99.90;;;;;;5080150;28;20024;-30
2023/12/01 06:43:09;;;;;;;13.43;8.07;;;1.60;99.90;;;;;;5077094;28;20020;-30
2023/12/01 06:45:36;;;;;;;10.18;6.22;;;1.60;99.90;;;;;;5077504;28;20385;-32
2023/12/01 06:48:02;;;;;;;13.93;8.23;;;1.60;99.90;;;;;;5080937;28;20023;-30
2023/12/01 06:50:27;;;;;;;13.20;8.18;;;1.60;99.90;;;;;;5077899;28;20020;-31
2023/12/01 06:52:53;;;;;;;10.60;7.40;;;1.50;99.90;;;;;;5078439;28;20108;-37
2023/12/01 06:55:19;;;;;;;13.05;7.32;;;1.50;99.90;;;;;;5075749;28;20032;-30
2023/12/01 06:57:47;;;;;;;11.25;7.40;;;1.60;99.90;;;;;;5077562;28;20082;-31
2023/12/01 07:00:29;;;;;;;13.10;7.80;;;1.50;99.90;;;;;;5079588;28;20104;-33
2023/12/01 07:02:59;;;;;;;13.85;8.65;;;1.60;99.90;;;;;;5077375;28;20485;-31
2023/12/01 07:05:26;;;;;;;12.00;8.48;;;1.60;99.90;;;;;;5078767;28;20032;-31
2023/12/01 07:07:53;;;;;;;12.85;8.73;;;1.60;99.90;;;;;;5078113;28;20036;-39
2023/12/01 07:10:21;;;;;;;12.63;8.32;;;1.70;99.90;;;;;;5081693;28;20024;-40
2023/12/01 07:12:47;;;;;;;11.83;8.00;;;1.70;99.90;;;;;;5077895;28;20016;-39
2023/12/01 07:15:20;;;;;;;12.93;8.30;;;1.70;99.90;;;;;;5079997;28;20254;-37
2023/12/01 07:17:50;;;;;;;15.77;9.63;;;1.70;99.90;;;;;;5077814;28;20036;-40
2023/12/01 07:20:18;;;;;;;13.48;9.15;;;1.60;99.90;;;;;;5076860;28;20475;-39
2023/12/01 07:22:45;;;;;;;16.33;10.63;;;1.60;99.90;;;;;;5078087;28;20062;-39
2023/12/01 07:25:21;;;;;;;14.60;8.90;;;1.50;99.90;;;;;;5074397;28;20496;-39
2023/12/01 07:27:50;;;;;;;13.48;8.63;;;1.50;99.90;;;;;;5076046;28;20117;-38
2023/12/01 07:30:16;;;;;;;13.98;8.85;;;1.40;99.90;;;;;;5075301;28;20380;-39
2023/12/01 07:32:46;;;;;;;12.23;9.25;;;1.40;99.90;;;;;;5078351;28;20047;-38
2023/12/01 07:35:12;;;;;;;10.00;7.65;;;1.40;99.90;;;;;;5077921;28;20107;-39
2023/12/01 07:37:42;;;;;;;10.60;7.95;;;1.40;99.90;;;;;;5075563;28;20488;-37
2023/12/01 07:40:13;;;;;;;16.52;9.80;;;1.40;99.90;;;;;;5071437;28;20032;-39
2023/12/01 07:42:39;;;;;;;12.45;7.88;;;1.40;99.90;;;;;;5075870;28;20028;-37
2023/12/01 07:45:05;;;;;;;10.75;7.95;;;1.40;99.90;;;;;;5069658;28;20076;-39
2023/12/01 07:47:31;;;;;;;14.25;8.63;;;1.40;99.90;;;;;;5079461;28;20040;-37
2023/12/01 07:49:59;;;;;;;12.57;8.23;;;1.40;99.90;;;;;;5077287;28;20055;-37
2023/12/01 07:52:25;;;;;;;23.08;12.23;;;1.40;99.90;;;;;;5078150;28;20481;-39
2023/12/01 07:54:50;;;;;;;19.02;11.05;;;1.40;99.90;;;;;;5075446;28;20120;-36
2023/12/01 07:57:16;;;;;;;13.13;8.85;;;1.30;99.90;;;;;;5073077;28;20028;-36
2023/12/01 07:59:42;;;;;;;17.05;10.68;;;1.30;99.90;;;;;;5074836;28;20077;-37
2023/12/01 08:02:09;;;;;;;11.65;8.25;;;1.20;99.90;;;;;;5072299;28;20040;-38
2023/12/01 08:04:35;;;;;;;9.77;8.45;;;1.30;99.90;;;;;;5077265;28;20032;-38
2023/12/01 08:07:01;;;;;;;11.85;7.93;;;1.30;99.90;;;;;;5078287;28;20029;-38
2023/12/01 08:09:31;;;;;;;11.32;8.05;;;1.40;99.90;;;;;;5076682;28;20032;-39
2023/12/01 08:11:58;;;;;;;9.52;7.40;;;1.40;99.90;;;;;;5077592;28;20063;-39
2023/12/01 08:14:27;;;;;;;12.90;7.22;;;1.40;99.90;;;;;;5080710;28;20035;-39
2023/12/01 08:16:53;;;;;;;10.65;7.47;;;1.30;99.90;;;;;;5082764;28;20036;-33
2023/12/01 08:19:19;;;;;;;10.60;7.50;;;1.40;99.90;;;;;;5074348;28;20235;-41
2023/12/01 08:21:45;;;;;;;10.25;7.35;;;1.40;99.90;;;;;;5074913;28;20052;-42
2023/12/01 08:24:11;;;;;;;13.48;7.82;;;1.30;99.90;;;;;;5077337;28;20024;-38
2023/12/01 08:26:37;;;;;;;14.73;7.53;;;1.30;99.90;;;;;;5070623;28;20082;-41
2023/12/01 08:29:03;;;;;;;9.85;7.45;;;1.30;99.90;;;;;;5078715;28;20434;-38
2023/12/01 08:31:30;;;;;;;10.18;7.80;;;1.30;99.90;;;;;;5081159;27;20032;-36
2023/12/01 08:33:56;;;;;;;9.32;7.70;;;1.20;99.90;;;;;;5074804;28;20123;-39
2023/12/01 08:36:22;;;;;;;9.80;7.25;;;1.20;99.90;;;;;;5081731;28;20020;-42
2023/12/01 08:38:47;;;;;;;9.27;6.75;;;1.20;99.90;;;;;;5075178;28;20249;-41
2023/12/01 08:41:13;;;;;;;11.75;6.55;;;1.20;99.90;;;;;;5081872;28;20016;-41
2023/12/01 08:43:39;;;;;;;8.13;5.75;;;1.30;99.90;;;;;;5074156;28;20036;-39
2023/12/01 08:46:05;;;;;;;7.80;6.68;;;1.30;99.90;;;;;;5079000;28;20056;-40
2023/12/01 08:48:31;;;;;;;8.98;6.15;;;1.30;99.90;;;;;;5070963;28;20024;-39
2023/12/01 08:50:56;;;;;;;9.50;6.25;;;1.20;99.90;;;;;;5075566;28;20020;-40
2023/12/01 08:53:22;;;;;;;10.68;6.88;;;1.20;99.90;;;;;;5081946;28;20067;-41
2023/12/01 08:55:51;;;;;;;9.73;6.80;;;1.20;99.90;;;;;;5075282;28;20195;-40
2023/12/01 08:58:17;;;;;;;;;;;1.20;99.90;;;;;;5072204;28;20081;-37
2023/12/01 09:00:43;;;;;;;7.97;5.80;;;1.20;99.90;;;;;;5078046;27;19995;-40
2023/12/01 09:03:09;;;;;;;9.32;6.15;;;1.10;99.90;;;;;;5073897;28;20150;-39
2023/12/01 09:05:35;;;;;;;7.57;6.53;;;1.10;99.90;;;;;;5082322;28;20028;-41
2023/12/01 09:08:05;;;;;;;11.48;7.38;;;1.10;99.90;;;;;;5071202;28;20133;-40
2023/12/01 09:10:32;;;;;;;8.95;6.88;;;1.10;99.90;;;;;;5080300;28;20070;-39
2023/12/01 09:12:57;;;;;;;9.50;6.07;;;1.00;99.90;;;;;;5078335;28;20028;-33
2023/12/01 09:15:23;;;;;;;11.40;8.13;;;1.10;99.90;;;;;;5082696;28;20035;-39
2023/12/01 09:17:49;;;;;;;12.27;7.90;;;1.10;99.90;;;;;;5079163;28;20095;-41
2023/12/01 09:20:15;;;;;;;21.02;8.05;;;1.10;99.90;;;;;;5074770;28;20049;-39
2023/12/01 09:22:41;;;;;;;11.68;7.82;;;1.10;99.90;;;;;;5086333;28;20031;-40
2023/12/01 09:25:07;;;;;;;14.38;8.90;;;1.00;99.90;;;;;;5082151;28;20141;-39
2023/12/01 09:27:33;;;;;;;11.98;8.32;;;1.00;99.90;;;;;;5088125;28;20027;-38
2023/12/01 09:29:59;;;;;;;14.35;9.23;;;1.00;99.90;;;;;;5074685;28;20039;-35
2023/12/01 09:32:24;;;;;;;15.07;8.20;;;1.00;99.90;;;;;;5076932;28;20499;-39
2023/12/01 09:34:50;;;;;;;15.93;9.18;;;1.00;99.90;;;;;;5080445;28;20035;-39
2023/12/01 09:37:16;;;;;;;15.20;9.05;;;0.90;99.90;;;;;;5075294;28;20021;-39
2023/12/01 09:39:42;;;;;;;16.63;9.10;;;0.90;99.90;;;;;;5083362;28;20036;-40
2023/12/01 09:42:08;;;;;;;13.77;8.55;;;0.90;99.90;;;;;;5081574;28;20104;-39
2023/12/01 09:44:35;;;;;;;15.95;8.13;;;0.90;99.90;;;;;;5078921;28;20012;-42
2023/12/01 09:47:02;;;;;;;12.32;7.55;;;0.90;99.90;;;;;;5077727;28;20028;-41
2023/12/01 09:49:33;;;;;;;13.77;8.27;;;0.90;99.90;;;;;;5080112;28;20469;-41
2023/12/01 09:52:03;;;;;;;10.13;7.22;;;0.90;99.90;;;;;;5077183;28;20493;-33
2023/12/01 09:54:32;;;;;;;14.52;9.57;;;0.90;99.90;;;;;;5082695;28;20577;-32
2023/12/01 09:56:58;;;;;;;16.85;10.07;;;0.90;99.90;;;;;;5078704;28;20090;-36
2023/12/01 09:59:24;;;;;;;12.57;8.57;;;0.90;99.90;;;;;;5075544;28;20451;-42
2023/12/01 10:01:51;;;;;;;16.75;9.40;;;0.90;99.90;;;;;;5082930;28;20066;-40
2023/12/01 10:04:17;;;;;;;11.65;8.18;;;0.90;99.90;;;;;;5078930;28;20577;-39
2023/12/01 10:06:43;;;;;;;12.68;8.20;;;1.00;99.90;;;;;;5080375;28;20016;-41
2023/12/01 10:09:12;;;;;;;12.68;8.35;;;0.90;99.90;;;;;;5073922;28;20035;-40
2023/12/01 10:11:38;;;;;;;12.27;7.72;;;1.00;99.90;;;;;;5077234;28;20066;-42
2023/12/01 10:14:07;;;;;;;14.10;9.05;;;1.00;99.90;;;;;;5077275;28;20497;-40
2023/12/01 10:16:38;;;;;;;16.58;9.90;;;1.00;99.90;;;;;;5098367;27;20437;-40
2023/12/01 10:19:05;;;;;;;15.20;9.30;;;1.00;99.90;;;;;;5079092;28;20029;-41
2023/12/01 10:21:41;;;;;;;19.50;10.30;;;0.90;99.90;;;;;;5074418;28;20049;-39
2023/12/01 10:24:20;;;;;;;17.27;9.68;;;0.90;99.90;;;;;;5079920;28;20389;-42
2023/12/01 10:26:50;;;;;;;19.92;9.88;;;0.90;99.90;;;;;;5081491;28;20485;-42
2023/12/01 10:29:30;;;;;;;17.70;9.57;;;0.90;99.90;;;;;;5083133;28;20441;-38
2023/12/01 10:32:03;;;;;;;17.10;9.40;;;0.90;99.90;;;;;;5079570;27;20028;-39
2023/12/01 10:34:30;;;;;;;16.85;10.57;;;0.90;99.90;;;;;;5073621;28;20043;-36
2023/12/01 10:36:55;;;;;;;21.45;11.52;;;0.90;99.90;;;;;;5081564;28;20402;-39
2023/12/01 10:39:27;;;;;;;23.98;11.75;;;0.90;99.90;;;;;;5075560;28;20033;-39
2023/12/01 10:41:53;;;;;;;25.25;12.45;;;0.80;99.90;;;;;;5075169;28;20057;-37
2023/12/01 10:44:25;;;;;;;21.85;11.65;;;0.90;99.90;;;;;;5078996;28;20028;-40
2023/12/01 10:46:52;;;;;;;20.70;12.23;;;0.90;99.90;;;;;;5074242;28;20405;-36
2023/12/01 10:49:18;;;;;;;20.73;11.07;;;0.80;99.90;;;;;;5072715;28;20020;-37
2023/12/01 10:51:45;;;;;;;22.13;11.52;;;0.90;99.90;;;;;;5073452;28;20027;-37
2023/12/01 10:54:12;;;;;;;19.75;10.65;;;0.90;99.90;;;;;;5086855;28;20081;-39
2023/12/01 10:57:03;;;;;;;21.50;11.10;;;0.90;99.90;;;;;;5073525;28;20020;-37
2023/12/01 10:59:32;;;;;;;22.08;11.82;;;0.80;99.90;;;;;;5076040;28;20107;-35
2023/12/01 11:02:00;;;;;;;21.58;11.82;;;0.80;99.90;;;;;;5079157;27;20083;-34
2023/12/01 11:04:26;;;;;;;24.23;11.43;;;0.80;99.90;;;;;;5076488;28;20440;-39
2023/12/01 11:06:57;;;;;;;24.23;12.02;;;0.80;99.90;;;;;;5072235;28;20051;-38
2023/12/01 11:09:57;;;;;;;20.98;10.88;;;0.80;99.90;;;;;;5073151;28;20776;-39
2023/12/01 11:12:47;;;;;;;22.20;12.65;;;0.80;99.90;;;;;;5077272;28;20012;-39
2023/12/01 11:15:21;;;;;;;24.38;12.00;;;0.80;99.90;;;;;;5074152;28;20126;-37
2023/12/01 11:17:46;;;;;;;27.70;14.38;;;0.80;99.90;;;;;;5073192;28;20024;-37
2023/12/01 11:20:56;;;;;;;24.45;12.88;;;0.80;99.90;;;;;;5073836;28;20096;-39
2023/12/01 11:23:24;;;;;;;26.00;13.68;;;0.70;99.90;;;;;;5075905;28;20477;-39
2023/12/01 11:26:05;;;;;;;27.10;14.05;;;0.70;99.90;;;;;;5071999;28;20694;-39
2023/12/01 11:31:08;;;;;;;27.70;14.50;;;0.70;99.90;;;;;;5076692;27;20039;-34
2023/12/01 11:33:47;;;;;;;27.13;13.70;;;0.70;99.90;;;;;;5077926;28;20485;-38
2023/12/01 11:36:47;;;;;;;27.40;13.95;;;0.70;99.90;;;;;;5079727;28;20073;-39
2023/12/01 11:39:16;;;;;;;29.48;14.50;;;0.70;99.90;;;;;;5076479;28;20020;-39
2023/12/01 11:41:42;;;;;;;30.75;15.00;;;0.70;99.90;;;;;;5074934;28;20094;-39
2023/12/01 11:44:40;;;;;;;27.40;13.40;;;0.70;99.90;;;;;;5075329;28;20485;-38
2023/12/01 11:50:28;;;;;;;32.33;15.02;;;0.70;99.90;;;;;;5074794;28;20036;-32
2023/12/01 11:52:55;;;;;;;30.90;14.93;;;0.70;99.90;;;;;;5076308;28;20043;-43
2023/12/01 11:55:21;;;;;;;30.58;14.63;;;0.70;99.90;;;;;;5073310;28;20139;-39
2023/12/01 11:57:53;;;;;;;26.98;13.00;;;0.70;99.90;;;;;;5079311;28;20032;-40
2023/12/01 12:00:19;;;;;;;28.33;15.98;;;0.60;99.90;;;;;;5075630;28;20409;-38
2023/12/01 12:02:45;;;;;;;29.88;14.45;;;0.60;99.90;;;;;;5070975;28;20040;-42
2023/12/01 12:05:12;;;;;;;30.80;16.27;;;0.60;99.90;;;;;;5083911;28;20059;-38
2023/12/01 12:07:38;;;;;;;30.02;15.20;;;0.70;99.90;;;;;;5076598;28;20077;-39
2023/12/01 12:10:08;;;;;;;32.13;16.58;;;0.70;99.90;;;;;;5058395;28;20036;-40
2023/12/01 12:12:34;;;;;;;29.90;15.02;;;0.70;99.90;;;;;;5070987;28;20043;-40
2023/12/01 12:15:08;;;;;;;28.15;15.00;;;0.60;99.90;;;;;;5077100;28;20024;-40
2023/12/01 12:17:34;;;;;;;27.23;12.70;;;0.60;99.90;;;;;;5074296;28;20052;-35
2023/12/01 12:19:59;;;;;;;28.33;14.30;;;0.70;99.90;;;;;;5073213;28;20540;-39
2023/12/01 12:22:26;;;;;;;26.27;12.88;;;0.70;99.90;;;;;;5077674;28;20043;-42
2023/12/01 12:24:52;;;;;;;24.75;12.93;;;0.70;99.90;;;;;;5075746;28;20085;-40
2023/12/01 12:27:18;;;;;;;29.30;13.80;;;0.70;99.90;;;;;;5075949;28;20024;-33
2023/12/01 12:29:45;;;;;;;24.08;12.55;;;0.70;99.90;;;;;;5073117;28;20020;-40
2023/12/01 12:32:11;;;;;;;25.02;12.90;;;0.70;99.90;;;;;;5064755;27;20025;-38
2023/12/01 12:34:38;;;;;;;26.48;13.60;;;0.70;99.90;;;;;;5083580;28;20482;-40
2023/12/01 12:37:04;;;;;;;27.23;12.32;;;0.70;99.90;;;;;;5077967;28;20522;-40
2023/12/01 12:39:32;;;;;;;27.30;13.25;;;0.70;99.90;;;;;;5067723;28;20021;-34
2023/12/01 12:41:59;;;;;;;30.42;13.80;;;0.70;99.90;;;;;;5076644;28;20058;-34
2023/12/01 12:44:29;;;;;;;27.23;13.73;;;0.70;99.90;;;;;;5076350;28;20051;-42
2023/12/01 12:47:03;;;;;;;27.58;14.20;;;0.70;99.90;;;;;;5074241;28;20029;-38
2023/12/01 12:49:33;;;;;;;29.83;15.35;;;0.70;99.90;;;;;;5068341;28;20435;-36
2023/12/01 12:51:59;;;;;;;25.40;13.63;;;0.70;99.90;;;;;;5079874;28;20402;-36
2023/12/01 12:54:26;;;;;;;23.80;12.07;;;0.70;99.90;;;;;;5084241;28;20039;-42
2023/12/01 12:56:52;;;;;;;21.52;12.57;;;0.70;99.90;;;;;;5077775;28;20110;-38